Gurgaon, India

1:06 AM IST on August 29, 2015 (GMT +0530)
Indira Gandhi International | | Change Station
CLOSE
Current Station
Airport
Location: New Delhi,
Elevation: 764 ft
Nearby Weather Stations

Elev 764 ft 28.57 °N, 77.12 °E | Updated 36 minutes ago

Haze
Haze
84 °F
Feels Like 91 °F
N
5
Wind Variable Wind from WSW

Today
High -- | Low -- °F
--% Chance of Precip.
Yesterday
High -- | Low -- °F
Precip. -- in
5:58 AM 6:47 PM
Waxing Gibbous, 99% visible
Pressure 29.65 in
Visibility 1.6 miles
Clouds Few 4000 ft
Scattered Clouds 10000 ft
Heat Index 91 °F
Dew Point 73 °F
Humidity 70%
Rainfall 0.00 in
Snow Depth Not available.
UV 0 out of 12
Pollen Not available.
Air Quality Not available.
Flu Activity Not available.
METAR VIDP 281900Z 24004KT 2500 HZ FEW040 SCT100 29/23 Q1004 NOSIG
Pressure 29.65 in
Visibility 1.6 miles
Clouds Few 4000 ft
Scattered Clouds 10000 ft
Heat Index 91 °F
Dew Point 73 °F
Humidity 70%
Rainfall 0.00 in
Snow Depth Not available.
UV 0 out of 12
Pollen Not available.
Air Quality Not available.
Flu Activity Not available.
METAR VIDP 281900Z 24004KT 2500 HZ FEW040 SCT100 29/23 Q1004 NOSIG

10-Day Weather Forecast

×

Almanac

Astronomy

Aug. 29, 2015 Rise Set
Actual Time
Civil Twilight
Nautical Twilight
Astronomical Twilight
Moon
Length of Visible Light
Length of Day
Tomorrow will be .
, % of the Moon is Illuminated

Today's Extremes

Country Highs Country Lows

Community

WunderPhotos

Upload Photos

1,850,464 photos uploaded!

WunderBlogs® & News

Nearby

Air Quality

  Air Quality AQ Index Pollutant
Not available.

Snow Depth

Station Depth Elevation

Earthquake Activity

City Distance Mag. Time & Date
Minimum magnitude displayed is 2.5.

Coastal Water Temperatures

Place Temperature

Stations

Nearby Weather Stations

Station Location Temp. Windchill Dew Point Humidity Wind Precip. Elev Updated Type